Agawam, Massachusetts
Current Conditions -  °F | °C
As of 12:53 PM on Saturday 25 Oct 2014 (Local Time) from KBAF Reporting Station
Few Clouds Few Clouds  
Wind Chill: 18°   Ceiling: Unl
Heat Index: 18°   Visibility: 10mi
Dew Point:   Wind: 5mph
Humidity: 46%   Direction: NA
Pressure: 29.71"   Gusts: NA
Location:  42.07°N, 72.61°W
Report Text: KBAF 251653Z VRB04KT 10SM FEW049 18/06 A2971 RMK AO2 SLP060 T01780061
Loading
Personal Weather Stations






























Interactive Weather Map
Tropical Storm Tracking
New forecast layout! Learn more

10-Day Weather Forecast

Advertisements
Track Severe Weather on mobile